.
WxDataArchive / Data Records for 2008-04-16
2008-04-15 April 2008 2008-04-17

Data Records for Wednesday, 16 April 2008

Time	Temp	Chill	HIndex	Humid	Dewpt	 Wind 	HiWind	WindDir	Rain 	Barom 
-----	----	-----	------	-----	-----	------	------	-------	-----	----- 
00:00	45.7	45.7	45.7	50	28.1	0	2	158	0.00	30.082 
00:05	45.7	45.7	45.7	50	28.1	0	2	90	0.00	30.080 
00:10	45.7	45.7	45.7	50	28.1	0	1	90	0.00	30.080 
00:15	45.5	45.5	45.5	51	28.4	0	2	68	0.00	30.079 
00:20	45.4	45.4	45.4	50	27.9	0	1	68	0.00	30.081 
00:25	45.2	45.2	45.2	51	28.2	0	2	68	0.00	30.080 
00:30	45.1	45.1	45.1	51	28.1	0	2	68	0.00	30.078 
00:35	45.1	45.1	45.1	51	28.1	0	1	68	0.00	30.078 
00:40	44.8	44.8	44.8	52	28.3	0	1	68	0.00	30.081 
00:45	44.6	44.6	44.6	52	28.1	0	1	68	0.00	30.082 
00:50	44.2	44.2	44.2	53	28.2	0	0	---	0.00	30.082 
00:55	44.1	44.1	44.1	53	28.1	0	1	68	0.00	30.082 
01:00	43.9	43.9	43.9	54	28.3	0	1	68	0.00	30.081 
01:05	43.6	43.6	43.6	54	28.1	0	1	68	0.00	30.079 
01:10	43.5	43.5	43.5	55	28.4	0	1	68	0.00	30.082 
01:15	43.5	43.5	43.5	55	28.4	0	1	68	0.00	30.084 
01:20	43.5	43.5	43.5	55	28.4	0	2	68	0.00	30.082 
01:25	43.5	43.5	43.5	56	28.9	0	1	68	0.00	30.079 
01:30	43.2	43.2	43.2	56	28.6	0	1	68	0.00	30.077 
01:35	43.1	43.1	43.1	57	28.9	0	2	248	0.00	30.075 
01:40	43.1	43.1	43.1	57	28.9	0	1	248	0.00	30.075 
01:45	42.8	42.8	42.8	57	28.6	0	1	248	0.00	30.076 
01:50	42.5	42.5	42.5	58	28.8	0	0	---	0.00	30.076 
01:55	42.2	42.2	42.2	58	28.5	0	0	---	0.00	30.075 
02:00	41.8	41.8	41.8	59	28.5	0	0	---	0.00	30.076 
02:05	41.3	41.3	41.3	59	28.1	0	1	248	0.00	30.077 
02:10	41.1	41.1	41.1	61	28.7	0	0	---	0.00	30.075 
02:15	40.9	40.9	40.9	61	28.5	0	0	---	0.00	30.074 
02:20	40.8	40.8	40.8	61	28.4	0	1	248	0.00	30.073 
02:25	41.1	41.1	41.1	61	28.7	0	1	225	0.00	30.073 
02:30	41.2	41.2	41.2	60	28.4	0	1	225	0.00	30.073 
02:35	41.3	41.3	41.3	60	28.5	0	1	225	0.00	30.072 
02:40	41.3	41.3	41.3	60	28.5	0	1	225	0.00	30.072 
02:45	41.2	41.2	41.2	61	28.8	0	1	225	0.00	30.072 
02:50	41.1	41.1	41.1	61	28.7	0	1	225	0.00	30.072 
02:55	40.9	40.9	40.9	61	28.5	0	1	225	0.00	30.073 
03:00	40.8	40.8	40.8	61	28.4	0	0	---	0.00	30.072 
03:05	40.6	40.6	40.6	61	28.2	0	1	225	0.00	30.073 
03:10	40.5	40.5	40.5	62	28.5	0	1	225	0.00	30.073 
03:15	40.2	40.2	40.2	62	28.2	0	0	---	0.00	30.073 
03:20	40.1	40.1	40.1	62	28.1	0	0	---	0.00	30.073 
03:25	40.1	40.1	40.1	62	28.1	0	1	225	0.00	30.072 
03:30	40.2	40.2	40.2	61	27.8	0	1	225	0.00	30.071 
03:35	40.5	40.5	40.5	61	28.1	0	1	225	0.00	30.072 
03:40	40.5	40.5	40.5	60	27.7	0	1	225	0.00	30.074 
03:45	40.6	40.6	40.6	60	27.8	0	2	202	0.00	30.075 
03:50	40.8	40.8	40.8	59	27.6	0	1	202	0.00	30.075 
03:55	40.8	40.8	40.8	60	28.0	0	2	202	0.00	30.079 
04:00	40.8	40.8	40.8	59	27.6	0	1	202	0.00	30.082 
04:05	40.8	40.8	40.8	59	27.6	0	1	202	0.00	30.083 
04:10	40.8	40.8	40.8	59	27.6	0	1	202	0.00	30.084 
04:15	40.8	40.8	40.8	59	27.6	0	1	202	0.00	30.085 
04:20	40.6	40.6	40.6	59	27.4	0	1	202	0.00	30.087 
04:25	40.6	40.6	40.6	59	27.4	0	0	---	0.00	30.087 
04:30	40.5	40.5	40.5	58	26.9	0	2	202	0.00	30.088 
04:35	40.6	40.6	40.6	58	27.0	0	3	180	0.00	30.088 
04:40	40.9	40.9	40.9	57	26.9	0	2	158	0.00	30.087 
04:45	41.1	41.1	41.1	57	27.0	0	2	158	0.00	30.088 
04:50	41.2	41.2	41.2	56	26.7	0	2	112	0.00	30.090 
04:55	41.2	41.2	41.2	57	27.1	0	1	112	0.00	30.091 
05:00	41.1	41.1	41.1	57	27.0	0	1	112	0.00	30.089 
05:05	41.1	41.1	41.1	57	27.0	0	2	112	0.00	30.092 
05:10	41.2	41.2	41.2	55	26.3	1	3	112	0.00	30.090 
05:15	41.3	41.3	41.3	56	26.8	0	1	112	0.00	30.091 
05:20	41.3	41.3	41.3	55	26.4	0	2	135	0.00	30.092 
05:25	41.5	41.5	41.5	55	26.6	1	5	135	0.00	30.089 
05:30	41.8	41.8	41.8	54	26.4	1	3	90	0.00	30.092 
05:35	41.8	41.8	41.8	54	26.4	0	2	90	0.00	30.093 
05:40	41.6	41.6	41.6	54	26.2	0	2	90	0.00	30.094 
05:45	41.5	41.5	41.5	55	26.6	0	1	90	0.00	30.097 
05:50	41.5	41.5	41.5	54	26.1	0	2	68	0.00	30.099 
05:55	41.3	41.3	41.3	55	26.4	0	1	90	0.00	30.101 
06:00	41.3	41.3	41.3	55	26.4	0	1	90	0.00	30.104 
06:05	41.3	41.3	41.3	55	26.4	0	2	90	0.00	30.106 
06:10	41.6	41.6	41.6	54	26.2	1	3	180	0.00	30.105 
06:15	41.9	41.9	41.9	54	26.5	1	4	112	0.00	30.104 
06:20	42.2	42.2	42.2	54	26.8	1	5	112	0.00	30.104 
06:25	42.3	42.3	42.3	53	26.4	1	3	45	0.00	30.105 
06:30	42.3	42.3	42.3	54	26.9	1	3	45	0.00	30.106 
06:35	42.6	42.6	42.6	54	27.1	1	5	90	0.00	30.106 
06:40	43.2	43.2	43.2	53	27.2	1	3	112	0.00	30.110 
06:45	43.9	43.9	43.9	51	27.0	2	4	90	0.00	30.113 
06:50	44.3	44.3	44.3	52	27.8	1	3	90	0.00	30.116 
06:55	44.6	44.6	44.6	52	28.1	1	3	90	0.00	30.116 
07:00	45.2	45.2	45.2	50	27.7	2	9	90	0.00	30.118 
07:05	45.7	45.7	45.7	50	28.1	1	4	270	0.00	30.120 
07:10	46.1	46.1	46.1	50	28.5	1	4	68	0.00	30.121 
07:15	46.7	46.7	46.7	48	28.1	2	9	112	0.00	30.120 
07:20	47.3	47.3	47.3	48	28.6	1	9	112	0.00	30.121 
07:25	47.6	47.6	47.6	46	27.9	2	10	248	0.00	30.119 
07:30	48.0	48.0	48.0	47	28.7	1	6	270	0.00	30.119 
07:35	48.6	48.6	48.6	46	28.8	2	5	248	0.00	30.119 
07:40	48.8	48.8	48.8	46	28.9	2	6	315	0.00	30.118 
07:45	49.1	49.1	49.1	45	28.7	2	7	270	0.00	30.117 
07:50	49.4	49.4	49.4	45	29.0	2	10	292	0.00	30.117 
07:55	49.8	49.8	49.8	46	29.9	2	8	45	0.00	30.115 
08:00	50.4	50.4	50.4	46	30.4	2	5	45	0.00	30.112 
08:05	50.8	50.8	50.8	45	30.2	1	5	45	0.00	30.112 
08:10	51.0	51.0	51.0	44	29.9	2	6	90	0.00	30.109 
08:15	51.4	51.4	51.4	44	30.2	2	7	45	0.00	30.106 
08:20	51.9	51.9	51.9	43	30.1	3	7	112	0.00	30.104 
08:25	52.2	52.2	52.2	43	30.4	3	9	270	0.00	30.104 
08:30	52.5	52.5	52.5	42	30.1	2	7	248	0.00	30.101 
08:35	52.9	52.9	52.9	40	29.2	3	10	248	0.00	30.104 
08:40	53.2	53.2	53.2	39	28.9	4	11	248	0.00	30.103 
08:45	53.6	53.6	53.6	40	29.9	3	12	248	0.00	30.100 
08:50	54.1	54.1	54.1	41	30.9	3	6	248	0.00	30.101 
08:55	54.2	54.2	54.2	39	29.8	4	15	248	0.00	30.100 
09:00	54.4	54.4	54.4	39	30.0	3	10	248	0.00	30.098 
09:05	54.8	54.8	54.8	38	29.7	4	13	270	0.00	30.096 
09:10	55.3	55.3	55.3	39	30.8	3	9	270	0.00	30.097 
09:15	55.6	55.6	55.6	39	31.0	3	9	248	0.00	30.095 
09:20	56.2	56.2	56.2	40	32.2	2	11	270	0.00	30.090 
09:25	56.5	56.5	56.5	37	30.5	3	6	292	0.00	30.088 
09:30	56.7	56.7	56.7	40	32.7	3	9	68	0.00	30.089 
09:35	57.0	57.0	57.0	36	30.3	3	9	248	0.00	30.085 
09:40	56.7	56.7	56.7	37	30.7	5	13	248	0.00	30.085 
09:45	57.0	57.0	57.0	36	30.3	3	11	270	0.00	30.083 
09:50	57.2	57.2	57.2	36	30.5	5	11	270	0.00	30.084 
09:55	57.5	57.5	57.5	36	30.8	3	7	248	0.00	30.083 
10:00	58.1	58.1	58.1	34	29.9	3	12	248	0.00	30.081 
10:05	58.3	58.3	58.3	33	29.3	5	11	270	0.00	30.081 
10:10	58.3	58.3	58.3	34	30.1	5	13	248	0.00	30.081 
10:15	58.6	58.6	58.6	35	31.0	5	19	248	0.00	30.081 
10:20	58.9	58.9	58.9	34	30.6	5	11	248	0.00	30.081 
10:25	59.5	59.5	59.5	33	30.4	3	13	248	0.00	30.079 
10:30	60.1	60.1	60.1	31	29.4	4	14	270	0.00	30.077 
10:35	59.9	59.9	59.9	30	28.4	6	15	248	0.00	30.079 
10:40	60.1	60.1	60.1	32	30.1	4	13	248	0.00	30.077 
10:45	60.9	60.9	60.9	30	29.3	5	12	248	0.00	30.078 
10:50	60.2	60.2	60.2	30	28.7	7	14	270	0.00	30.078 
10:55	60.2	60.2	60.2	31	29.5	6	12	248	0.00	30.072 
11:00	61.2	61.2	61.2	33	31.9	4	11	248	0.00	30.070 
11:05	61.5	61.5	61.5	32	31.4	4	13	248	0.00	30.066 
11:10	61.8	61.8	61.8	29	29.2	5	12	248	0.00	30.063 
11:15	62.0	62.0	62.0	32	31.8	5	11	270	0.00	30.062 
11:20	62.0	62.0	62.0	30	30.2	5	12	248	0.00	30.062 
11:25	62.1	62.1	62.1	30	30.3	4	12	248	0.00	30.062 
11:30	62.1	62.1	62.1	28	28.6	6	13	270	0.00	30.056 
11:35	62.4	62.4	62.4	28	28.9	4	10	270	0.00	30.058 
11:40	62.7	62.7	62.7	31	31.6	4	11	270	0.00	30.054 
11:45	62.9	62.9	62.9	31	31.8	3	10	248	0.00	30.053 
11:50	62.9	62.9	62.9	29	30.2	6	15	270	0.00	30.049 
11:55	62.9	62.9	62.9	31	31.8	4	12	248	0.00	30.048 
12:00	62.9	62.9	62.9	31	31.8	3	10	270	0.00	30.046 
12:05	63.2	63.2	63.2	30	31.3	5	10	270	0.00	30.045 
12:10	63.7	63.7	63.7	32	33.3	3	7	90	0.00	30.040 
12:15	63.9	63.9	63.9	32	33.5	5	13	90	0.00	30.036 
12:20	63.9	63.9	63.9	28	30.2	5	14	248	0.00	30.036 
12:25	63.9	63.9	63.9	28	30.2	6	13	270	0.00	30.032 
12:30	63.9	63.9	63.9	28	30.2	5	12	248	0.00	30.030 
12:35	64.0	64.0	64.0	27	29.4	6	14	248	0.00	30.030 
12:40	64.2	64.2	64.2	26	28.6	5	12	248	0.00	30.028 
12:45	64.3	64.3	64.3	28	30.5	6	12	270	0.00	30.028 
12:50	64.5	64.5	64.5	26	28.9	6	14	270	0.00	30.028 
12:55	64.8	64.8	64.8	30	32.6	4	11	248	0.00	30.027 
13:00	65.3	65.3	65.3	29	32.2	4	11	248	0.00	30.018 
13:05	65.6	65.6	65.6	28	31.6	4	18	248	0.00	30.016 
13:10	65.8	65.8	65.8	28	31.8	3	11	248	0.00	30.015 
13:15	66.0	66.0	66.0	31	34.5	3	10	270	0.00	30.015 
13:20	66.1	66.1	66.1	32	35.4	3	10	248	0.00	30.014 
13:25	66.3	66.3	66.3	27	31.3	3	9	270	0.00	30.013 
13:30	66.9	66.9	66.9	28	32.7	3	7	248	0.00	30.008 
13:35	66.8	66.8	66.8	27	31.7	4	11	225	0.00	30.004 
13:40	66.3	66.3	66.3	28	32.2	4	10	270	0.00	30.008 
13:45	66.6	66.6	66.6	28	32.5	4	11	248	0.00	30.011 
13:50	66.8	66.8	66.8	28	32.6	3	11	248	0.00	30.008 
13:55	67.1	67.1	67.1	29	33.8	3	7	90	0.00	30.008 
14:00	66.9	66.9	66.9	29	33.6	4	10	270	0.00	30.010 
14:05	66.9	66.9	66.9	28	32.7	4	9	248	0.00	30.008 
14:10	67.3	67.3	67.3	32	36.4	3	10	248	0.00	30.008 
14:15	67.1	67.1	67.1	27	32.0	4	9	248	0.00	30.009 
14:20	67.3	67.3	67.3	27	32.2	3	9	270	0.00	30.007 
14:25	67.4	67.4	67.4	27	32.3	3	9	248	0.00	30.004 
14:30	67.8	67.8	67.8	28	33.5	3	8	248	0.00	30.002 
14:35	67.9	67.9	67.9	26	31.7	3	7	248	0.00	30.002 
14:40	67.8	67.8	67.8	27	32.6	4	11	248	0.00	29.999 
14:45	67.6	67.6	67.6	30	35.1	3	9	45	0.00	29.997 
14:50	67.4	67.4	67.4	27	32.3	4	11	248	0.00	29.992 
14:55	67.3	67.3	67.3	27	32.2	4	10	270	0.00	29.989 
15:00	67.3	67.3	67.3	29	33.9	3	9	90	0.00	29.990 
15:05	67.4	67.4	67.4	30	34.9	2	7	202	0.00	29.990 
15:10	67.3	67.3	67.3	28	33.1	3	10	315	0.00	29.985 
15:15	67.3	67.3	67.3	27	32.2	4	18	90	0.00	29.983 
15:20	67.1	67.1	67.1	27	32.0	4	13	90	0.00	29.983 
15:25	67.3	67.3	67.3	28	33.1	4	10	248	0.00	29.981 
15:30	67.3	67.3	67.3	28	33.1	4	11	248	0.00	29.981 
15:35	67.1	67.1	67.1	28	32.9	4	11	248	0.00	29.982 
15:40	67.6	67.6	67.6	32	36.7	3	10	248	0.00	29.981 
15:45	67.6	67.6	67.6	31	35.9	3	7	270	0.00	29.978 
15:50	67.6	67.6	67.6	31	35.9	2	7	68	0.00	29.977 
15:55	67.4	67.4	67.4	29	34.0	3	7	90	0.00	29.974 
16:00	67.3	67.3	67.3	31	35.6	3	9	45	0.00	29.970 
16:05	67.3	67.3	67.3	28	33.1	3	10	248	0.00	29.970 
16:10	67.3	67.3	67.3	30	34.8	4	9	248	0.00	29.969 
16:15	67.1	67.1	67.1	29	33.8	4	11	248	0.00	29.968 
16:20	66.9	66.9	66.9	27	31.8	5	10	270	0.00	29.967 
16:25	67.1	67.1	67.1	31	35.4	2	10	270	0.00	29.965 
16:30	67.3	67.3	67.3	27	32.2	4	12	270	0.00	29.966 
16:35	67.4	67.4	67.4	27	32.3	3	10	248	0.00	29.966 
16:40	67.8	67.8	67.8	28	33.5	2	4	112	0.00	29.967 
16:45	67.8	67.8	67.8	27	32.6	3	7	248	0.00	29.967 
16:50	67.3	67.3	67.3	27	32.2	3	10	270	0.00	29.968 
16:55	66.8	66.8	66.8	28	32.6	4	9	68	0.00	29.970 
17:00	66.4	66.4	66.4	29	33.2	3	10	90	0.00	29.967 
17:05	66.6	66.6	66.6	27	31.6	3	10	90	0.00	29.964 
17:10	66.6	66.6	66.6	27	31.6	4	10	90	0.00	29.962 
17:15	66.4	66.4	66.4	28	32.3	4	11	90	0.00	29.967 
17:20	66.4	66.4	66.4	28	32.3	3	10	270	0.00	29.967 
17:25	66.4	66.4	66.4	27	31.4	3	9	90	0.00	29.966 
17:30	66.3	66.3	66.3	28	32.2	2	7	270	0.00	29.960 
17:35	66.3	66.3	66.3	28	32.2	3	9	90	0.00	29.958 
17:40	66.3	66.3	66.3	27	31.3	3	7	248	0.00	29.959 
17:45	66.3	66.3	66.3	28	32.2	4	12	90	0.00	29.955 
17:50	66.3	66.3	66.3	28	32.2	3	11	90	0.00	29.954 
17:55	66.1	66.1	66.1	28	32.0	5	14	90	0.00	29.954 
18:00	66.0	66.0	66.0	28	32.0	3	13	90	0.00	29.953 
18:05	65.6	65.6	65.6	27	30.7	4	10	90	0.00	29.951 
18:10	65.5	65.5	65.5	28	31.5	2	9	248	0.00	29.950 
18:15	65.3	65.3	65.3	30	33.1	2	5	90	0.00	29.948 
18:20	65.2	65.2	65.2	29	32.1	2	5	90	0.00	29.944 
18:25	65.2	65.2	65.2	28	31.3	3	13	112	0.00	29.946 
18:30	65.0	65.0	65.0	30	32.8	2	7	112	0.00	29.937 
18:35	64.8	64.8	64.8	31	33.5	2	5	112	0.00	29.941 
18:40	64.5	64.5	64.5	31	33.2	1	5	0	0.00	29.944 
18:45	64.2	64.2	64.2	32	33.7	1	3	112	0.00	29.943 
18:50	64.0	64.0	64.0	31	32.8	2	6	112	0.00	29.939 
18:55	63.9	63.9	63.9	32	33.5	2	5	112	0.00	29.937 
19:00	63.7	63.7	63.7	32	33.3	3	9	112	0.00	29.935 
19:05	63.5	63.5	63.5	32	33.1	2	7	90	0.00	29.929 
19:10	63.2	63.2	63.2	32	32.9	2	7	90	0.00	29.929 
19:15	63.1	63.1	63.1	32	32.8	3	8	68	0.00	29.924 
19:20	62.9	62.9	62.9	33	33.4	2	6	90	0.00	29.923 
19:25	62.6	62.6	62.6	34	33.8	2	7	112	0.00	29.924 
19:30	62.3	62.3	62.3	35	34.3	2	5	112	0.00	29.928 
19:35	62.0	62.0	62.0	35	34.0	2	7	90	0.00	29.927 
19:40	61.6	61.6	61.6	35	33.7	2	7	112	0.00	29.922 
19:45	61.5	61.5	61.5	35	33.6	2	5	112	0.00	29.928 
19:50	61.3	61.3	61.3	35	33.4	2	5	112	0.00	29.931 
19:55	61.0	61.0	61.0	35	33.2	2	5	68	0.00	29.934 
20:00	60.9	60.9	60.9	35	33.1	2	4	90	0.00	29.934 
20:05	60.9	60.9	60.9	35	33.1	2	6	90	0.00	29.928 
20:10	60.7	60.7	60.7	36	33.6	2	5	90	0.00	29.928 
20:15	60.7	60.7	60.7	35	32.9	2	7	90	0.00	29.928 
20:20	60.5	60.5	60.5	36	33.4	3	6	112	0.00	29.929 
20:25	60.5	60.5	60.5	36	33.4	2	7	90	0.00	29.931 
20:30	60.1	60.1	60.1	37	33.7	1	4	112	0.00	29.939 
20:35	59.6	59.6	59.6	37	33.3	1	4	112	0.00	29.942 
20:40	59.6	59.6	59.6	37	33.3	1	4	68	0.00	29.944 
20:45	59.5	59.5	59.5	37	33.2	1	4	90	0.00	29.948 
20:50	59.3	59.3	59.3	38	33.7	0	4	225	0.00	29.951 
20:55	59.0	59.0	59.0	38	33.4	1	5	270	0.00	29.956 
21:00	58.9	58.9	58.9	38	33.3	1	4	45	0.00	29.957 
21:05	58.6	58.6	58.6	38	33.1	0	2	135	0.00	29.954 
21:10	58.4	58.4	58.4	38	32.9	1	3	22	0.00	29.954 
21:15	58.3	58.3	58.3	39	33.5	1	3	68	0.00	29.958 
21:20	58.1	58.1	58.1	39	33.3	0	2	45	0.00	29.958 
21:25	57.8	57.8	57.8	39	33.0	0	2	45	0.00	29.960 
21:30	57.6	57.6	57.6	40	33.5	0	3	45	0.00	29.962 
21:35	57.6	57.6	57.6	39	32.8	1	5	112	0.00	29.961 
21:40	58.0	58.0	58.0	37	31.9	2	9	112	0.00	29.953 
21:45	58.3	58.3	58.3	37	32.1	3	6	112	0.00	29.948 
21:50	58.3	58.3	58.3	37	32.1	1	4	112	0.00	29.950 
21:55	58.0	58.0	58.0	38	32.5	1	4	90	0.00	29.956 
22:00	57.6	57.6	57.6	39	32.8	1	5	112	0.00	29.955 
22:05	57.3	57.3	57.3	39	32.6	1	3	112	0.00	29.958 
22:10	57.0	57.0	57.0	40	32.9	1	4	112	0.00	29.957 
22:15	56.9	56.9	56.9	40	32.8	1	2	90	0.00	29.959 
22:20	56.7	56.7	56.7	41	33.3	1	4	112	0.00	29.960 
22:25	56.5	56.5	56.5	42	33.7	0	2	135	0.00	29.961 
22:30	56.0	56.0	56.0	43	33.8	0	1	135	0.00	29.962 
22:35	55.7	55.7	55.7	43	33.6	1	2	135	0.00	29.963 
22:40	55.4	55.4	55.4	44	33.9	1	2	135	0.00	29.964 
22:45	55.4	55.4	55.4	44	33.9	1	3	112	0.00	29.964 
22:50	55.1	55.1	55.1	45	34.1	0	1	112	0.00	29.966 
22:55	54.7	54.7	54.7	46	34.3	0	1	112	0.00	29.968 
23:00	54.2	54.2	54.2	47	34.4	0	1	112	0.00	29.973 
23:05	53.8	53.8	53.8	48	34.6	0	1	112	0.00	29.972 
23:10	53.2	53.2	53.2	49	34.5	0	0	---	0.00	29.974 
23:15	52.9	52.9	52.9	50	34.8	0	0	---	0.00	29.976 
23:20	52.6	52.6	52.6	50	34.5	0	1	112	0.00	29.977 
23:25	52.3	52.3	52.3	50	34.2	0	1	112	0.00	29.978 
23:30	52.2	52.2	52.2	50	34.1	0	0	---	0.00	29.981 
23:35	51.9	51.9	51.9	51	34.3	0	1	112	0.00	29.986 
23:40	51.7	51.7	51.7	51	34.2	0	1	112	0.00	29.991 
23:45	51.9	51.9	51.9	51	34.3	0	1	112	0.00	29.993 
23:50	51.9	51.9	51.9	51	34.3	0	1	112	0.00	29.994 
23:55	51.6	51.6	51.6	51	34.1	0	0	---	0.00	29.994 

CoCoRaHS
IN-AL-39
A2 Web Hosting
Creative Commons License
GoDaddy
Look for:

loaded 2017-12-11 06:41:48 • last modified 2010-11-18 10:43:29
Privacy PolicyDisclaimer
• wx.awcolley.com is powered by PmWiki v.2002016 •
• all content (unless otherwise noted) © 2017 A W Colley